Time;durP1;ratioP1;P1;durP2;ratioP2;P2;SDS_P1;SDS_P2;PMS_P1;PMS_P2;Temp;Humidity;BMP_temperature;BMP_pressure;BME280_temperature;BME280_humidity;BME280_pressure;Samples;Min_cycle;Max_cycle;Signal;HPM_P1;HPM_P2
2022/07/01 00:02:17;;;;;;;1.05;0.20;;;19.00;99.90;;;;;;10169807;29;20063;-61
2022/07/01 00:07:20;;;;;;;1.85;0.20;;;18.70;99.90;;;;;;10170393;29;20067;-62
2022/07/01 00:12:21;;;;;;;0.25;0.20;;;18.30;99.90;;;;;;10170137;29;20048;-62
2022/07/01 00:17:23;;;;;;;1.00;0.60;;;17.90;99.90;;;;;;10167199;29;20071;-62
2022/07/01 00:22:27;;;;;;;1.13;0.40;;;17.50;99.90;;;;;;10166445;29;20114;-63
2022/07/01 00:27:29;;;;;;;0.93;0.60;;;17.40;99.90;;;;;;10165661;29;20114;-63
2022/07/01 00:32:31;;;;;;;2.38;0.40;;;17.40;99.90;;;;;;10169469;28;20056;-62
2022/07/01 00:37:32;;;;;;;1.02;0.70;;;17.40;99.90;;;;;;10169330;29;20506;-62
2022/07/01 00:42:38;;;;;;;0.98;0.60;;;17.40;99.90;;;;;;10163986;29;20055;-62
2022/07/01 00:47:42;;;;;;;0.60;0.40;;;17.50;99.90;;;;;;10169999;28;20044;-61
2022/07/01 00:52:45;;;;;;;0.90;0.43;;;17.40;99.90;;;;;;10171082;28;20110;-61
2022/07/01 00:57:47;;;;;;;1.20;0.50;;;17.20;99.90;;;;;;10162713;29;20055;-60
2022/07/01 01:02:48;;;;;;;1.23;0.30;;;17.30;99.90;;;;;;10165923;29;20391;-60
2022/07/01 01:07:50;;;;;;;0.75;0.52;;;17.00;99.90;;;;;;10167984;29;20060;-61
2022/07/01 01:12:52;;;;;;;0.40;0.30;;;16.90;99.90;;;;;;10165186;29;20052;-62
2022/07/01 01:17:54;;;;;;;0.73;0.30;;;16.80;99.90;;;;;;10169351;29;20059;-60
2022/07/01 01:22:55;;;;;;;0.90;0.35;;;16.80;99.90;;;;;;10168160;29;20052;-60
2022/07/01 01:27:58;;;;;;;0.45;0.30;;;16.70;99.90;;;;;;10161650;29;20072;-60
2022/07/01 01:32:59;;;;;;;0.28;0.20;;;16.60;99.90;;;;;;10167186;29;20095;-60
2022/07/01 01:38:01;;;;;;;0.70;0.20;;;16.50;99.90;;;;;;10168725;29;20065;-61
2022/07/01 01:43:03;;;;;;;0.50;0.30;;;16.50;99.90;;;;;;10162540;28;20048;-61
2022/07/01 01:48:04;;;;;;;0.60;0.30;;;16.50;99.90;;;;;;10165759;29;20044;-61
2022/07/01 01:53:06;;;;;;;1.58;0.40;;;16.40;99.90;;;;;;10163166;29;20429;-61
2022/07/01 01:58:08;;;;;;;0.77;0.30;;;16.30;99.90;;;;;;10168672;29;20068;-61
2022/07/01 02:03:10;;;;;;;0.73;0.45;;;16.20;99.90;;;;;;10173526;29;20056;-60
2022/07/01 02:08:12;;;;;;;2.35;0.80;;;16.10;99.90;;;;;;10170306;29;20517;-60
2022/07/01 02:13:13;;;;;;;1.48;0.30;;;15.80;99.90;;;;;;10175356;29;20059;-61
2022/07/01 02:18:15;;;;;;;4.70;0.52;;;15.50;99.90;;;;;;10173228;29;20063;-60
2022/07/01 02:23:17;;;;;;;1.30;0.50;;;15.40;99.90;;;;;;10175590;29;20101;-61
2022/07/01 02:28:19;;;;;;;0.75;0.40;;;15.30;99.90;;;;;;10169935;29;20056;-60
2022/07/01 02:33:22;;;;;;;0.90;0.43;;;15.30;99.90;;;;;;10175277;29;20056;-61
2022/07/01 02:38:24;;;;;;;2.75;0.73;;;15.30;99.90;;;;;;10174635;29;20059;-61
2022/07/01 02:43:26;;;;;;;0.82;0.50;;;15.40;99.90;;;;;;10178860;28;20566;-61
2022/07/01 02:48:27;;;;;;;1.20;0.43;;;15.40;99.90;;;;;;10169205;29;20067;-61
2022/07/01 02:53:29;;;;;;;0.65;0.30;;;15.40;99.90;;;;;;10167909;29;20084;-60
2022/07/01 02:58:31;;;;;;;3.53;0.50;;;15.40;99.90;;;;;;10172166;29;20691;-60
2022/07/01 03:03:33;;;;;;;1.85;0.30;;;15.40;99.90;;;;;;10169900;28;20062;-59
2022/07/01 03:08:34;;;;;;;0.85;0.30;;;15.30;99.90;;;;;;10170798;29;20078;-60
2022/07/01 03:13:36;;;;;;;0.70;0.30;;;15.20;99.90;;;;;;10169988;29;20063;-60
2022/07/01 03:18:37;;;;;;;1.17;0.40;;;15.20;99.90;;;;;;10166948;28;20052;-64
2022/07/01 03:23:39;;;;;;;0.77;0.50;;;15.30;99.90;;;;;;10163540;29;20523;-64
2022/07/01 03:28:41;;;;;;;1.15;0.60;;;15.40;99.90;;;;;;10169708;28;20051;-64
2022/07/01 03:33:42;;;;;;;0.95;0.60;;;15.40;99.90;;;;;;10166571;29;20056;-64
2022/07/01 03:38:44;;;;;;;2.92;0.50;;;15.20;99.90;;;;;;10168560;29;20451;-64
2022/07/01 03:43:46;;;;;;;1.65;0.40;;;15.20;99.90;;;;;;10167636;29;20107;-64
2022/07/01 03:48:48;;;;;;;0.70;0.30;;;15.30;99.90;;;;;;10173188;28;20075;-66
2022/07/01 03:59:10;;;;;;;0.25;0.10;;;15.40;99.90;;;;;;10167525;29;20064;-65
2022/07/01 04:04:11;;;;;;;0.45;0.13;;;15.30;99.90;;;;;;10168237;29;20051;-65
2022/07/01 04:09:16;;;;;;;1.75;0.15;;;15.40;99.90;;;;;;10182069;29;20060;-65
2022/07/01 04:14:18;;;;;;;0.57;0.10;;;15.40;99.90;;;;;;10165431;29;20724;-65
2022/07/01 04:19:20;;;;;;;0.20;0.10;;;15.40;99.90;;;;;;10170191;28;20056;-65
2022/07/01 04:24:25;;;;;;;0.75;0.20;;;15.40;99.90;;;;;;10170735;28;20415;-68
2022/07/01 04:29:29;;;;;;;0.20;0.20;;;15.40;99.90;;;;;;10163167;29;20059;-65
2022/07/01 04:34:30;;;;;;;0.88;0.20;;;15.40;99.90;;;;;;10163952;29;20432;-65
2022/07/01 04:39:32;;;;;;;0.35;0.10;;;15.50;99.90;;;;;;10175462;29;20407;-64
2022/07/01 04:44:37;;;;;;;1.25;0.20;;;15.50;99.90;;;;;;10167234;28;20567;-65
2022/07/01 04:49:44;;;;;;;0.52;0.20;;;15.60;99.90;;;;;;10163771;29;20060;-65
2022/07/01 04:54:46;;;;;;;1.60;0.20;;;15.60;99.90;;;;;;10167806;29;20117;-65
2022/07/01 04:59:48;;;;;;;1.70;0.20;;;15.60;99.90;;;;;;10162178;29;20075;-65
2022/07/01 05:04:49;;;;;;;0.70;0.30;;;15.70;99.90;;;;;;10161830;28;20055;-64
2022/07/01 05:09:51;;;;;;;0.45;0.20;;;15.80;99.90;;;;;;10163832;28;20539;-64
2022/07/01 05:14:53;;;;;;;0.60;0.20;;;15.90;99.90;;;;;;10161593;29;20122;-65
2022/07/01 05:25:15;;;;;;;0.63;0.20;;;16.10;99.90;;;;;;10164363;29;20083;-66
2022/07/01 05:30:17;;;;;;;2.15;0.20;;;16.10;99.90;;;;;;10171402;29;20418;-66
2022/07/01 05:35:18;;;;;;;1.35;0.40;;;16.00;99.90;;;;;;10170418;28;20499;-66
2022/07/01 05:40:20;;;;;;;0.82;0.17;;;16.10;99.90;;;;;;10175703;29;20059;-66
2022/07/01 05:45:22;;;;;;;0.47;0.20;;;16.20;99.90;;;;;;10167031;29;20125;-66
2022/07/01 05:50:25;;;;;;;2.40;0.30;;;16.10;99.90;;;;;;10169472;29;20171;-66
2022/07/01 05:55:27;;;;;;;0.82;0.10;;;16.20;99.90;;;;;;10161549;29;20056;-67
2022/07/01 06:00:29;;;;;;;0.95;0.10;;;16.40;99.90;;;;;;10168913;29;20054;-66
2022/07/01 06:05:30;;;;;;;0.03;0.03;;;16.50;99.90;;;;;;10178082;29;20064;-66
2022/07/01 06:10:33;;;;;;;1.23;0.20;;;16.60;99.90;;;;;;10174787;29;20056;-66
2022/07/01 06:15:35;;;;;;;1.48;0.10;;;16.70;99.90;;;;;;10169914;29;20052;-67
2022/07/01 06:20:37;;;;;;;0.55;0.10;;;16.80;99.90;;;;;;10172036;29;20060;-67
2022/07/01 06:25:38;;;;;;;0.10;0.10;;;16.90;99.90;;;;;;10172220;29;20491;-67
2022/07/01 06:30:43;;;;;;;0.10;0.10;;;16.70;99.90;;;;;;10173017;28;20202;-67
2022/07/01 06:35:45;;;;;;;0.10;0.10;;;16.70;99.90;;;;;;10175751;29;20055;-64
2022/07/01 06:41:26;;;;;;;0.55;0.10;;;16.70;99.90;;;;;;10169591;29;20122;-64
2022/07/01 06:46:08;;;;;;;1.10;0.10;;;16.80;99.90;;;;;;10170178;29;20052;-64
2022/07/01 06:51:10;;;;;;;0.40;0.00;;;16.80;99.90;;;;;;10172337;28;20169;-64
2022/07/01 06:56:13;;;;;;;0.30;0.20;;;16.90;99.90;;;;;;10169904;29;20049;-64
2022/07/01 07:01:15;;;;;;;0.85;0.10;;;16.90;99.90;;;;;;10174108;29;20063;-64
2022/07/01 07:06:17;;;;;;;0.32;0.10;;;17.00;99.90;;;;;;10168967;29;20079;-64
2022/07/01 07:11:19;;;;;;;0.00;0.00;;;17.00;99.90;;;;;;10167688;28;20055;-64
2022/07/01 07:16:21;;;;;;;0.10;0.00;;;17.00;99.90;;;;;;10169311;28;20048;-64
2022/07/01 07:21:23;;;;;;;2.08;0.20;;;16.90;99.90;;;;;;10169737;29;20135;-67
2022/07/01 07:26:25;;;;;;;0.90;0.10;;;16.80;99.90;;;;;;10170704;29;20051;-67
2022/07/01 07:31:27;;;;;;;0.20;0.10;;;16.60;99.90;;;;;;10168848;29;20059;-66
2022/07/01 07:36:28;;;;;;;0.08;0.08;;;16.60;99.90;;;;;;10169711;28;20060;-66
2022/07/01 07:41:30;;;;;;;0.10;0.10;;;16.60;99.90;;;;;;10172832;29;20056;-66
2022/07/01 07:46:32;;;;;;;0.40;0.10;;;16.60;99.90;;;;;;10164926;29;20514;-66
2022/07/01 07:51:34;;;;;;;1.55;0.10;;;16.60;99.90;;;;;;10164965;28;20422;-66
2022/07/01 07:56:36;;;;;;;0.30;0.10;;;16.30;99.90;;;;;;10162057;28;20051;-66
2022/07/01 08:01:44;;;;;;;0.50;0.10;;;16.20;99.90;;;;;;10165509;29;20455;-66
2022/07/01 08:06:46;;;;;;;2.47;0.10;;;16.10;99.90;;;;;;10163295;28;21341;-67
2022/07/01 08:11:48;;;;;;;0.40;0.13;;;15.90;99.90;;;;;;10165640;28;20759;-66
2022/07/01 08:16:50;;;;;;;4.60;0.30;;;15.90;99.90;;;;;;10164788;28;20086;-66
2022/07/01 08:21:52;;;;;;;0.93;0.20;;;15.70;99.90;;;;;;10165216;29;20487;-65
2022/07/01 08:26:53;;;;;;;0.68;0.28;;;15.60;99.90;;;;;;10162723;28;20868;-65
2022/07/01 08:31:55;;;;;;;4.13;0.30;;;15.60;99.90;;;;;;10166080;29;20051;-66
2022/07/01 08:36:57;;;;;;;0.30;0.10;;;15.60;99.90;;;;;;10164242;29;20055;-66
2022/07/01 08:41:59;;;;;;;1.55;0.20;;;15.60;99.90;;;;;;10158372;29;20052;-66
2022/07/01 08:47:02;;;;;;;0.20;0.10;;;15.60;99.90;;;;;;10164212;29;20067;-65
2022/07/01 08:52:04;;;;;;;0.47;0.30;;;15.60;99.90;;;;;;10164192;29;20403;-65
2022/07/01 08:57:06;;;;;;;3.00;0.20;;;15.60;99.90;;;;;;10176972;28;20048;-65
2022/07/01 09:02:08;;;;;;;4.18;0.20;;;15.70;99.90;;;;;;10165545;28;20110;-65
2022/07/01 09:07:10;;;;;;;0.75;0.20;;;15.90;99.90;;;;;;10162965;29;20064;-65
2022/07/01 09:12:15;;;;;;;0.30;0.20;;;16.00;99.90;;;;;;10160753;28;20063;-65
2022/07/01 09:17:20;;;;;;;0.50;0.20;;;16.30;99.90;;;;;;10166379;29;20061;-64
2022/07/01 09:22:22;;;;;;;0.30;0.10;;;16.60;99.90;;;;;;10170876;29;20111;-65
2022/07/01 09:27:25;;;;;;;0.68;0.20;;;16.70;99.90;;;;;;10166946;29;20071;-66
2022/07/01 09:32:27;;;;;;;2.05;0.30;;;16.60;99.90;;;;;;10169100;29;20055;-65
2022/07/01 09:37:31;;;;;;;3.67;0.40;;;16.50;99.90;;;;;;10166925;28;20135;-65
2022/07/01 09:42:45;;;;;;;1.58;0.25;;;16.60;99.90;;;;;;10171195;29;20056;-65
2022/07/01 09:47:48;;;;;;;2.67;0.52;;;16.60;99.90;;;;;;10167797;29;20063;-65
2022/07/01 09:52:49;;;;;;;2.63;0.28;;;16.70;99.90;;;;;;10170470;29;20066;-65
2022/07/01 09:57:51;;;;;;;1.27;0.20;;;16.80;99.90;;;;;;10172360;29;20048;-64
2022/07/01 10:02:55;;;;;;;0.63;0.20;;;16.70;99.90;;;;;;10171190;28;20052;-65
2022/07/01 10:08:18;;;;;;;2.38;0.20;;;16.80;99.90;;;;;;10172959;29;20055;-65
2022/07/01 10:13:25;;;;;;;3.17;0.47;;;17.20;99.90;;;;;;10167564;28;20043;-65
2022/07/01 10:18:28;;;;;;;2.25;0.20;;;17.50;99.90;;;;;;10168598;29;20060;-64
2022/07/01 10:23:43;;;;;;;2.08;0.30;;;17.70;99.90;;;;;;10166672;28;20106;-65
2022/07/01 10:28:47;;;;;;;1.40;0.20;;;18.00;99.90;;;;;;10163520;29;20095;-65
2022/07/01 10:33:50;;;;;;;0.73;0.20;;;18.00;99.90;;;;;;10167393;29;20107;-66
2022/07/01 10:39:06;;;;;;;3.25;0.20;;;18.20;99.90;;;;;;10162491;29;20608;-66
2022/07/01 10:44:13;;;;;;;0.20;0.20;;;18.40;99.90;;;;;;10163975;28;20137;-66
2022/07/01 10:49:41;;;;;;;0.73;0.20;;;18.40;99.90;;;;;;10161426;29;21396;-65
2022/07/01 10:54:47;;;;;;;0.52;0.10;;;18.40;99.90;;;;;;10167220;29;20118;-64
2022/07/01 10:59:53;;;;;;;0.55;0.20;;;18.60;99.90;;;;;;10166564;29;20067;-65
2022/07/01 11:05:00;;;;;;;0.22;0.10;;;18.60;99.90;;;;;;10163910;29;20059;-65
2022/07/01 11:10:05;;;;;;;1.38;0.22;;;18.80;99.90;;;;;;10165351;29;20059;-66
2022/07/01 11:15:10;;;;;;;1.42;0.22;;;19.40;99.90;;;;;;10172666;28;20071;-65
2022/07/01 11:20:12;;;;;;;1.60;0.20;;;20.10;99.90;;;;;;10171475;28;20057;-65
2022/07/01 11:25:14;;;;;;;3.72;0.20;;;20.40;99.90;;;;;;10171606;28;20090;-66
2022/07/01 11:30:18;;;;;;;0.43;0.20;;;20.80;99.90;;;;;;10171479;29;20056;-65
2022/07/01 11:40:51;;;;;;;3.00;0.28;;;20.30;99.90;;;;;;10171467;29;20452;-66
2022/07/01 11:45:54;;;;;;;0.60;0.20;;;20.40;99.90;;;;;;10169732;28;20119;-65
2022/07/01 11:50:56;;;;;;;1.40;0.40;;;20.20;99.90;;;;;;10167793;29;20709;-65
2022/07/01 11:55:58;;;;;;;1.77;0.30;;;19.90;99.90;;;;;;10161481;29;20060;-66
2022/07/01 12:01:00;;;;;;;2.35;0.20;;;19.80;99.90;;;;;;10159313;29;20060;-66
2022/07/01 12:06:02;;;;;;;0.55;0.28;;;20.00;99.90;;;;;;10164854;29;20056;-66
2022/07/01 12:11:04;;;;;;;1.58;0.20;;;20.00;99.90;;;;;;10170367;28;20056;-66
2022/07/01 12:16:10;;;;;;;0.25;0.17;;;19.60;99.90;;;;;;10166785;29;20071;-66
2022/07/01 12:21:12;;;;;;;1.48;0.25;;;19.40;99.90;;;;;;10164507;29;20384;-66
2022/07/01 12:26:17;;;;;;;1.23;0.20;;;19.10;99.90;;;;;;10163808;29;20051;-66
2022/07/01 12:31:18;;;;;;;1.10;0.17;;;19.50;99.90;;;;;;10168787;28;20115;-66
2022/07/01 12:36:20;;;;;;;3.67;0.20;;;20.10;99.90;;;;;;10162553;29;20130;-66
2022/07/01 12:41:33;;;;;;;0.43;0.10;;;20.00;99.90;;;;;;10163961;28;20492;-66
2022/07/01 12:46:40;;;;;;;0.50;0.10;;;21.30;99.90;;;;;;10159247;29;20131;-66
2022/07/01 12:51:41;;;;;;;1.08;0.20;;;20.90;97.80;;;;;;10161914;29;20067;-64
2022/07/01 12:56:43;;;;;;;2.10;0.20;;;20.70;99.70;;;;;;10162283;29;20055;-65
2022/07/01 13:01:45;;;;;;;0.50;0.30;;;20.40;98.30;;;;;;10167521;29;20052;-64
2022/07/01 13:06:47;;;;;;;1.40;0.13;;;20.70;99.30;;;;;;10166883;29;20134;-65
2022/07/01 13:11:49;;;;;;;0.82;0.20;;;20.80;98.20;;;;;;10165216;28;20044;-65
2022/07/01 13:16:50;;;;;;;0.20;0.10;;;21.40;98.00;;;;;;10163012;29;20111;-64
2022/07/01 13:21:52;;;;;;;0.32;0.10;;;21.50;98.10;;;;;;10167288;29;20052;-65
2022/07/01 13:26:54;;;;;;;2.75;0.10;;;22.20;97.00;;;;;;10165533;29;20052;-65
2022/07/01 13:31:56;;;;;;;0.98;0.13;;;22.60;96.00;;;;;;10162363;29;20060;-65
2022/07/01 13:36:58;;;;;;;0.93;0.10;;;22.50;94.90;;;;;;10163059;29;20079;-65
2022/07/01 13:42:00;;;;;;;0.95;0.20;;;22.90;93.80;;;;;;10167267;29;20048;-66
2022/07/01 13:47:05;;;;;;;1.80;0.20;;;22.50;94.40;;;;;;10163877;29;20059;-66
2022/07/01 13:52:06;;;;;;;0.65;0.10;;;23.20;95.30;;;;;;10167173;29;20052;-66
2022/07/01 13:57:08;;;;;;;0.10;0.10;;;23.50;94.90;;;;;;10166075;29;20071;-66
2022/07/01 14:02:10;;;;;;;0.68;0.20;;;23.90;93.40;;;;;;10168112;29;20547;-66
2022/07/01 14:07:12;;;;;;;0.55;0.20;;;24.40;93.20;;;;;;10177186;29;20051;-66
2022/07/01 14:12:15;;;;;;;0.80;0.20;;;24.60;91.90;;;;;;10175332;29;20059;-66
2022/07/01 14:17:28;;;;;;;0.57;0.10;;;24.70;92.80;;;;;;10170961;29;20058;-66
2022/07/01 14:22:31;;;;;;;2.10;0.20;;;25.10;91.00;;;;;;10170722;28;20119;-66
2022/07/01 14:27:32;;;;;;;0.90;0.20;;;24.70;91.00;;;;;;10172209;28;20059;-66
2022/07/01 14:32:35;;;;;;;1.48;0.20;;;24.00;88.60;;;;;;10171170;29;20060;-66
2022/07/01 14:37:38;;;;;;;1.67;0.43;;;23.90;89.40;;;;;;10174393;29;20137;-66
2022/07/01 14:42:40;;;;;;;1.35;0.20;;;24.60;89.10;;;;;;10188255;23;20052;-89
2022/07/01 14:47:42;;;;;;;0.25;0.10;;;24.40;89.90;;;;;;10154167;29;20511;-89
2022/07/01 14:52:44;;;;;;;0.90;0.10;;;24.10;88.30;;;;;;10160114;29;20052;-89
2022/07/01 14:57:46;;;;;;;2.03;0.13;;;24.20;86.40;;;;;;10161205;29;20077;-89
2022/07/01 15:02:48;;;;;;;0.40;0.10;;;24.20;87.90;;;;;;10139373;29;20124;-89
2022/07/01 15:07:50;;;;;;;0.47;0.10;;;24.00;87.00;;;;;;10178301;29;26565;-89
2022/07/01 15:12:54;;;;;;;0.45;0.20;;;23.80;86.80;;;;;;10189107;29;20091;-90
2022/07/01 15:17:57;;;;;;;0.10;0.10;;;23.50;87.90;;;;;;10184955;29;20100;-89
2022/07/01 15:22:59;;;;;;;0.63;0.10;;;22.80;89.90;;;;;;10179118;29;20112;-89
2022/07/01 15:28:00;;;;;;;0.95;0.10;;;22.30;90.30;;;;;;10185979;29;20489;-89
2022/07/01 15:33:05;;;;;;;0.10;0.00;;;22.10;91.50;;;;;;10205111;29;20055;-88
2022/07/01 15:38:07;;;;;;;0.30;0.10;;;22.00;91.60;;;;;;10138334;29;20059;-89
2022/07/01 15:43:12;;;;;;;1.02;0.10;;;22.10;90.60;;;;;;10187434;29;20062;-88
2022/07/01 15:48:13;;;;;;;0.10;0.10;;;21.60;91.10;;;;;;10165478;29;20048;-89
2022/07/01 15:53:16;;;;;;;0.20;0.10;;;21.60;91.10;;;;;;10202147;29;20051;-89
2022/07/01 15:58:19;;;;;;;0.20;0.10;;;21.40;90.50;;;;;;10178105;29;20117;-89
2022/07/01 16:03:21;;;;;;;4.90;0.20;;;21.40;90.30;;;;;;10188254;29;20060;-89
2022/07/01 16:08:34;;;;;;;0.20;0.10;;;21.10;93.80;;;;;;10175694;29;20099;-89
2022/07/01 16:13:50;;;;;;;0.22;0.10;;;21.00;95.90;;;;;;10165628;29;20150;-88
2022/07/01 16:18:53;;;;;;;0.28;0.10;;;21.00;96.30;;;;;;10180504;29;20086;-89
2022/07/01 16:23:56;;;;;;;0.70;0.10;;;20.70;95.40;;;;;;10164358;29;20094;-88
2022/07/01 16:29:00;;;;;;;1.85;0.05;;;20.70;94.70;;;;;;10176921;29;20172;-89
2022/07/01 16:34:02;;;;;;;0.10;0.00;;;20.90;94.70;;;;;;10177404;29;20143;-89
2022/07/01 16:39:07;;;;;;;0.85;0.10;;;20.90;93.80;;;;;;10179906;29;20502;-89
2022/07/01 16:44:34;;;;;;;0.35;0.10;;;21.00;93.70;;;;;;10177371;29;20056;-88
2022/07/01 16:49:43;;;;;;;2.10;0.20;;;20.90;94.40;;;;;;10187639;29;20107;-89
2022/07/01 16:54:56;;;;;;;0.10;0.00;;;20.70;94.60;;;;;;10145731;29;20043;-89
2022/07/01 16:59:58;;;;;;;2.72;0.40;;;20.80;95.20;;;;;;10196958;29;20039;-89
2022/07/01 17:05:02;;;;;;;0.90;0.10;;;20.90;96.10;;;;;;10173170;29;20062;-89
2022/07/01 17:10:04;;;;;;;0.10;0.00;;;21.00;94.90;;;;;;10170368;29;20406;-88
2022/07/01 17:15:07;;;;;;;0.70;0.10;;;21.20;95.20;;;;;;10169080;29;20059;-88
2022/07/01 17:20:10;;;;;;;1.65;0.08;;;21.50;96.10;;;;;;10160683;29;20057;-87
2022/07/01 17:25:32;;;;;;;1.45;0.10;;;22.40;93.80;;;;;;10188388;29;20055;-86
2022/07/01 17:30:51;;;;;;;0.28;0.10;;;23.30;91.60;;;;;;10183485;29;20044;-87
2022/07/01 17:35:56;;;;;;;0.10;0.10;;;24.10;90.30;;;;;;10193278;29;20055;-86
2022/07/01 17:41:01;;;;;;;1.40;0.10;;;24.30;88.60;;;;;;10172264;29;20096;-85
2022/07/01 17:46:05;;;;;;;1.52;0.15;;;24.00;88.70;;;;;;10186599;29;20064;-86
2022/07/01 17:51:10;;;;;;;1.65;0.10;;;23.80;90.20;;;;;;10211524;29;20070;-86
2022/07/01 17:56:13;;;;;;;0.25;0.10;;;23.50;90.80;;;;;;10187887;29;20055;-86
2022/07/01 18:01:19;;;;;;;1.27;0.15;;;23.30;90.80;;;;;;10173029;29;20108;-88
2022/07/01 18:06:21;;;;;;;2.60;0.10;;;23.10;90.70;;;;;;10188119;29;20090;-85
2022/07/01 18:12:00;;;;;;;1.33;0.10;;;22.80;90.30;;;;;;10179357;29;20566;-86
2022/07/01 18:17:15;;;;;;;0.10;0.10;;;22.60;90.60;;;;;;10166841;29;20111;-86
2022/07/01 18:22:26;;;;;;;3.33;0.17;;;22.40;91.20;;;;;;10174549;29;20114;-86
2022/07/01 18:27:40;;;;;;;0.35;0.30;;;22.10;92.70;;;;;;10189199;29;20411;-86
2022/07/01 18:32:44;;;;;;;1.05;0.20;;;21.90;92.90;;;;;;10182693;29;20628;-86
2022/07/01 18:37:50;;;;;;;0.00;0.00;;;21.80;93.50;;;;;;10177062;29;20509;-86
2022/07/01 18:42:57;;;;;;;1.55;0.00;;;21.60;93.00;;;;;;10172263;29;20090;-86
2022/07/01 18:48:01;;;;;;;0.43;0.20;;;21.40;93.20;;;;;;10168009;29;20075;-86
2022/07/01 18:53:03;;;;;;;1.25;0.10;;;21.20;93.70;;;;;;10196814;29;20051;-86
2022/07/01 18:58:05;;;;;;;1.35;0.10;;;21.00;94.80;;;;;;10176300;29;20048;-86
2022/07/01 19:03:07;;;;;;;2.70;0.10;;;20.80;95.80;;;;;;10191091;29;20055;-86
2022/07/01 19:08:09;;;;;;;0.10;0.10;;;20.70;96.50;;;;;;10189333;29;20056;-87
2022/07/01 19:13:11;;;;;;;0.40;0.20;;;20.60;97.80;;;;;;10205819;29;20127;-85
2022/07/01 19:18:18;;;;;;;0.50;0.30;;;20.50;98.00;;;;;;10170330;29;20051;-86
2022/07/01 19:23:20;;;;;;;1.65;0.20;;;20.40;98.70;;;;;;10175854;29;20106;-86
2022/07/01 19:28:22;;;;;;;1.33;0.20;;;20.30;99.20;;;;;;10176204;29;20087;-85
2022/07/01 19:33:24;;;;;;;0.28;0.20;;;20.20;99.90;;;;;;10173318;29;20055;-86
2022/07/01 19:38:26;;;;;;;0.57;0.20;;;20.00;99.90;;;;;;10179353;29;20479;-86
2022/07/01 19:43:29;;;;;;;1.13;0.20;;;19.90;99.90;;;;;;10178653;29;20139;-86
2022/07/01 19:48:31;;;;;;;1.25;0.20;;;19.90;99.90;;;;;;10195074;29;20320;-87
2022/07/01 19:53:33;;;;;;;1.85;0.10;;;19.80;99.90;;;;;;10176401;29;20044;-87
2022/07/01 19:58:35;;;;;;;1.58;0.22;;;19.70;99.90;;;;;;10184783;29;20193;-86
2022/07/01 20:03:38;;;;;;;1.45;0.20;;;19.60;99.90;;;;;;10184252;29;20051;-87
2022/07/01 20:08:40;;;;;;;0.50;0.20;;;19.50;99.90;;;;;;10174715;29;20130;-87
2022/07/01 20:13:41;;;;;;;2.55;0.20;;;19.50;99.90;;;;;;10168344;29;20138;-86
2022/07/01 20:18:43;;;;;;;0.30;0.20;;;19.50;99.90;;;;;;10184409;29;20494;-86
2022/07/01 20:23:45;;;;;;;1.85;0.30;;;19.40;99.90;;;;;;10188969;29;20086;-86
2022/07/01 20:28:47;;;;;;;1.80;0.32;;;19.20;99.90;;;;;;10172625;29;20050;-85
2022/07/01 20:33:49;;;;;;;3.95;0.40;;;19.10;99.90;;;;;;10180222;29;20126;-86
2022/07/01 20:38:52;;;;;;;0.82;0.30;;;18.90;99.90;;;;;;10169988;29;20131;-86
2022/07/01 20:43:54;;;;;;;1.17;0.40;;;18.70;99.90;;;;;;10159328;29;20489;-86
2022/07/01 20:48:55;;;;;;;1.65;0.40;;;18.60;99.90;;;;;;10170299;29;20138;-86
2022/07/01 20:53:57;;;;;;;1.27;0.32;;;18.50;99.90;;;;;;10194792;29;20039;-86
2022/07/01 20:58:59;;;;;;;0.55;0.50;;;18.30;99.90;;;;;;10171572;29;20055;-84
2022/07/01 21:04:21;;;;;;;1.45;0.80;;;18.10;99.90;;;;;;10192391;29;20452;-84
2022/07/01 21:09:23;;;;;;;1.25;0.70;;;18.00;99.90;;;;;;10172328;29;20064;-84
2022/07/01 21:14:25;;;;;;;2.13;0.70;;;17.80;99.90;;;;;;10176915;29;20052;-84
2022/07/01 21:19:27;;;;;;;1.90;0.60;;;17.70;99.90;;;;;;10174495;29;20062;-86
2022/07/01 21:24:29;;;;;;;1.55;0.63;;;17.50;99.90;;;;;;10179630;29;20063;-86
2022/07/01 21:29:31;;;;;;;4.82;0.90;;;17.50;99.90;;;;;;10191011;29;20142;-86
2022/07/01 21:34:34;;;;;;;2.58;0.95;;;17.30;99.90;;;;;;10177559;29;20475;-86
2022/07/01 21:39:36;;;;;;;1.10;0.40;;;17.10;99.90;;;;;;10197754;29;20462;-86
2022/07/01 21:44:41;;;;;;;1.58;0.40;;;17.00;99.90;;;;;;10176879;29;20098;-86
2022/07/01 21:49:45;;;;;;;1.00;0.40;;;16.80;99.90;;;;;;10176689;29;20955;-86
2022/07/01 21:54:49;;;;;;;2.58;0.47;;;16.60;99.90;;;;;;10182364;29;20059;-86
2022/07/01 21:59:52;;;;;;;0.60;0.30;;;16.60;99.90;;;;;;10176928;29;20126;-86
2022/07/01 22:04:55;;;;;;;0.57;0.32;;;16.40;99.90;;;;;;10192723;29;20048;-86
2022/07/01 22:09:57;;;;;;;1.25;0.40;;;16.30;99.90;;;;;;10160680;29;20066;-86
2022/07/01 22:15:04;;;;;;;0.98;0.30;;;16.20;99.90;;;;;;10176721;29;20051;-86
2022/07/01 22:20:07;;;;;;;0.85;0.40;;;16.10;99.90;;;;;;10166244;29;20406;-87
2022/07/01 22:25:08;;;;;;;0.75;0.32;;;16.00;99.90;;;;;;10187515;29;20483;-87
2022/07/01 22:30:11;;;;;;;2.65;0.40;;;15.70;99.90;;;;;;10190941;29;20150;-86
2022/07/01 22:35:14;;;;;;;0.40;0.30;;;15.60;99.90;;;;;;10158249;29;20052;-84
2022/07/01 22:40:21;;;;;;;1.08;0.50;;;15.60;99.90;;;;;;10174234;29;22698;-84
2022/07/01 22:45:43;;;;;;;2.17;0.30;;;15.50;99.90;;;;;;10109799;29;20077;-84
2022/07/01 22:50:52;;;;;;;2.08;0.40;;;15.20;99.90;;;;;;10171907;29;20059;-84
2022/07/01 22:56:01;;;;;;;11.63;0.60;;;15.20;99.90;;;;;;10166736;29;20040;-86
2022/07/01 23:01:05;;;;;;;5.55;0.40;;;15.10;99.90;;;;;;10149169;29;20036;-85
2022/07/01 23:06:13;;;;;;;0.73;0.50;;;15.00;99.90;;;;;;10146561;29;20056;-85
2022/07/01 23:11:21;;;;;;;0.73;0.50;;;15.10;99.90;;;;;;10165423;29;20056;-85
2022/07/01 23:16:26;;;;;;;1.98;0.40;;;15.00;99.90;;;;;;10154593;29;20068;-85
2022/07/01 23:21:29;;;;;;;2.50;0.40;;;14.90;99.90;;;;;;10163660;29;20063;-85
2022/07/01 23:26:31;;;;;;;0.60;0.40;;;14.90;99.90;;;;;;10152357;29;20055;-85
2022/07/01 23:31:36;;;;;;;0.70;0.40;;;14.80;99.90;;;;;;10171857;29;20083;-86
2022/07/01 23:36:40;;;;;;;0.80;0.30;;;14.70;99.90;;;;;;10152825;29;20067;-86
2022/07/01 23:41:42;;;;;;;2.53;0.40;;;14.70;99.90;;;;;;10135310;29;20395;-86
2022/07/01 23:46:44;;;;;;;2.08;0.57;;;14.70;99.90;;;;;;10186710;29;20471;-85
2022/07/01 23:51:46;;;;;;;1.75;0.40;;;14.60;99.90;;;;;;10150532;29;20079;-85
2022/07/01 23:56:48;;;;;;;1.02;0.40;;;14.60;99.90;;;;;;10183874;29;20044;-85
